sensor_id;sensor_type;location;lat;lon;timestamp;P1;durP1;ratioP1;P2;durP2;ratioP2
40599;SDS011;26309;50.924;4.754;2022-10-16T05:48:20;8.77;;;3.15;;
40599;SDS011;26309;50.924;4.754;2022-10-16T05:58:52;4.15;;;2.50;;
40599;SDS011;26309;50.924;4.754;2022-10-16T07:24:27;8.05;;;2.65;;
40599;SDS011;26309;50.924;4.754;2022-10-16T07:26:55;2.92;;;2.15;;
40599;SDS011;26309;50.924;4.754;2022-10-16T07:29:21;5.07;;;2.45;;
40599;SDS011;26309;50.924;4.754;2022-10-16T07:31:47;4.68;;;2.30;;
40599;SDS011;26309;50.924;4.754;2022-10-16T07:34:15;3.75;;;2.30;;
40599;SDS011;26309;50.924;4.754;2022-10-16T07:36:42;5.75;;;2.65;;
40599;SDS011;26309;50.924;4.754;2022-10-16T07:39:08;5.47;;;2.50;;
40599;SDS011;26309;50.924;4.754;2022-10-16T07:41:34;5.65;;;2.50;;
40599;SDS011;26309;50.924;4.754;2022-10-16T07:44:02;8.57;;;2.70;;
40599;SDS011;26309;50.924;4.754;2022-10-16T07:46:28;11.40;;;2.40;;
40599;SDS011;26309;50.924;4.754;2022-10-16T07:48:55;3.53;;;2.30;;
40599;SDS011;26309;50.924;4.754;2022-10-16T07:51:21;4.85;;;2.50;;
40599;SDS011;26309;50.924;4.754;2022-10-16T07:53:49;5.13;;;2.58;;
40599;SDS011;26309;50.924;4.754;2022-10-16T07:56:16;4.60;;;2.50;;
40599;SDS011;26309;50.924;4.754;2022-10-16T07:58:43;3.65;;;2.47;;
40599;SDS011;26309;50.924;4.754;2022-10-16T08:01:10;4.00;;;2.53;;
40599;SDS011;26309;50.924;4.754;2022-10-16T08:03:42;3.47;;;2.35;;
40599;SDS011;26309;50.924;4.754;2022-10-16T08:06:12;5.18;;;2.33;;
40599;SDS011;26309;50.924;4.754;2022-10-16T08:08:38;5.93;;;2.33;;
40599;SDS011;26309;50.924;4.754;2022-10-16T08:11:05;7.45;;;2.22;;
40599;SDS011;26309;50.924;4.754;2022-10-16T08:13:33;9.60;;;2.20;;
40599;SDS011;26309;50.924;4.754;2022-10-16T08:16:00;5.55;;;2.72;;
40599;SDS011;26309;50.924;4.754;2022-10-16T08:18:26;5.07;;;2.17;;
40599;SDS011;26309;50.924;4.754;2022-10-16T08:20:56;2.40;;;2.20;;
40599;SDS011;26309;50.924;4.754;2022-10-16T08:23:24;5.10;;;2.17;;
40599;SDS011;26309;50.924;4.754;2022-10-16T08:25:51;3.42;;;2.05;;
40599;SDS011;26309;50.924;4.754;2022-10-16T08:28:21;9.48;;;1.92;;
40599;SDS011;26309;50.924;4.754;2022-10-16T08:30:48;3.35;;;2.08;;
40599;SDS011;26309;50.924;4.754;2022-10-16T08:33:14;7.55;;;2.25;;
40599;SDS011;26309;50.924;4.754;2022-10-16T08:35:40;4.35;;;1.80;;
40599;SDS011;26309;50.924;4.754;2022-10-16T08:38:06;6.88;;;2.25;;
40599;SDS011;26309;50.924;4.754;2022-10-16T08:40:39;6.13;;;1.90;;
40599;SDS011;26309;50.924;4.754;2022-10-16T08:49:03;4.68;;;1.92;;
40599;SDS011;26309;50.924;4.754;2022-10-16T08:51:36;6.88;;;2.13;;
40599;SDS011;26309;50.924;4.754;2022-10-16T08:57:15;3.33;;;1.55;;
40599;SDS011;26309;50.924;4.754;2022-10-16T09:00:08;2.92;;;1.80;;
40599;SDS011;26309;50.924;4.754;2022-10-16T09:06:25;5.03;;;1.90;;
40599;SDS011;26309;50.924;4.754;2022-10-16T09:15:05;5.30;;;1.95;;
40599;SDS011;26309;50.924;4.754;2022-10-16T09:18:10;7.63;;;1.90;;
40599;SDS011;26309;50.924;4.754;2022-10-16T09:21:35;6.32;;;1.63;;
40599;SDS011;26309;50.924;4.754;2022-10-16T09:24:29;6.85;;;1.70;;
40599;SDS011;26309;50.924;4.754;2022-10-16T09:27:13;5.88;;;1.92;;
40599;SDS011;26309;50.924;4.754;2022-10-16T09:29:58;5.18;;;1.50;;
40599;SDS011;26309;50.924;4.754;2022-10-16T09:33:10;7.35;;;1.70;;
40599;SDS011;26309;50.924;4.754;2022-10-16T09:36:12;5.25;;;1.40;;
40599;SDS011;26309;50.924;4.754;2022-10-16T09:38:44;5.45;;;1.48;;
40599;SDS011;26309;50.924;4.754;2022-10-16T09:41:23;4.28;;;1.50;;
40599;SDS011;26309;50.924;4.754;2022-10-16T09:44:38;7.72;;;1.33;;
40599;SDS011;26309;50.924;4.754;2022-10-16T09:49:55;3.88;;;1.48;;
40599;SDS011;26309;50.924;4.754;2022-10-16T09:52:26;10.80;;;1.63;;
40599;SDS011;26309;50.924;4.754;2022-10-16T09:57:28;3.40;;;1.15;;
40599;SDS011;26309;50.924;4.754;2022-10-16T09:59:56;6.25;;;1.38;;
40599;SDS011;26309;50.924;4.754;2022-10-16T10:02:44;3.15;;;1.20;;
40599;SDS011;26309;50.924;4.754;2022-10-16T10:05:28;6.65;;;1.38;;
40599;SDS011;26309;50.924;4.754;2022-10-16T10:07:57;6.68;;;1.40;;
40599;SDS011;26309;50.924;4.754;2022-10-16T10:10:25;4.60;;;1.20;;
40599;SDS011;26309;50.924;4.754;2022-10-16T10:12:53;5.22;;;1.60;;
40599;SDS011;26309;50.924;4.754;2022-10-16T10:15:20;4.50;;;0.98;;
40599;SDS011;26309;50.924;4.754;2022-10-16T10:17:55;3.70;;;1.45;;
40599;SDS011;26309;50.924;4.754;2022-10-16T10:22:57;6.10;;;1.40;;
40599;SDS011;26309;50.924;4.754;2022-10-16T10:40:05;4.57;;;1.25;;
40599;SDS011;26309;50.924;4.754;2022-10-16T10:43:00;4.47;;;1.50;;
40599;SDS011;26309;50.924;4.754;2022-10-16T10:45:42;6.22;;;1.17;;
40599;SDS011;26309;50.924;4.754;2022-10-16T10:51:35;6.50;;;1.50;;
40599;SDS011;26309;50.924;4.754;2022-10-16T10:56:41;5.75;;;1.38;;
40599;SDS011;26309;50.924;4.754;2022-10-16T10:59:25;5.82;;;1.38;;
40599;SDS011;26309;50.924;4.754;2022-10-16T11:02:15;4.80;;;1.20;;
40599;SDS011;26309;50.924;4.754;2022-10-16T11:07:50;3.45;;;1.02;;
40599;SDS011;26309;50.924;4.754;2022-10-16T11:10:23;5.90;;;1.33;;
40599;SDS011;26309;50.924;4.754;2022-10-16T11:12:58;6.30;;;1.50;;
40599;SDS011;26309;50.924;4.754;2022-10-16T11:15:35;4.38;;;1.40;;
40599;SDS011;26309;50.924;4.754;2022-10-16T11:20:57;6.15;;;1.10;;
40599;SDS011;26309;50.924;4.754;2022-10-16T11:23:31;2.97;;;1.10;;
40599;SDS011;26309;50.924;4.754;2022-10-16T11:26:26;3.95;;;1.02;;
40599;SDS011;26309;50.924;4.754;2022-10-16T11:28:56;4.10;;;1.23;;
40599;SDS011;26309;50.924;4.754;2022-10-16T11:31:29;2.75;;;1.08;;
40599;SDS011;26309;50.924;4.754;2022-10-16T11:34:05;3.05;;;1.10;;
40599;SDS011;26309;50.924;4.754;2022-10-16T11:36:45;4.22;;;1.10;;
40599;SDS011;26309;50.924;4.754;2022-10-16T11:39:27;7.88;;;1.40;;
40599;SDS011;26309;50.924;4.754;2022-10-16T11:49:40;3.67;;;1.05;;
40599;SDS011;26309;50.924;4.754;2022-10-16T11:55:17;1.98;;;1.00;;
40599;SDS011;26309;50.924;4.754;2022-10-16T11:57:59;4.00;;;1.30;;
40599;SDS011;26309;50.924;4.754;2022-10-16T12:06:27;5.03;;;1.02;;
40599;SDS011;26309;50.924;4.754;2022-10-16T12:08:51;4.38;;;1.30;;
40599;SDS011;26309;50.924;4.754;2022-10-16T12:19:25;6.97;;;1.10;;
40599;SDS011;26309;50.924;4.754;2022-10-16T12:21:54;5.40;;;1.50;;
40599;SDS011;26309;50.924;4.754;2022-10-16T12:27:06;4.07;;;1.30;;
40599;SDS011;26309;50.924;4.754;2022-10-16T12:29:57;8.02;;;1.23;;
40599;SDS011;26309;50.924;4.754;2022-10-16T12:32:33;4.03;;;1.10;;
40599;SDS011;26309;50.924;4.754;2022-10-16T12:35:01;4.50;;;1.15;;
40599;SDS011;26309;50.924;4.754;2022-10-16T12:37:34;6.15;;;1.55;;
40599;SDS011;26309;50.924;4.754;2022-10-16T12:42:58;2.90;;;0.98;;
40599;SDS011;26309;50.924;4.754;2022-10-16T12:45:34;6.63;;;1.23;;
40599;SDS011;26309;50.924;4.754;2022-10-16T12:48:00;2.70;;;1.17;;
40599;SDS011;26309;50.924;4.754;2022-10-16T12:50:31;4.20;;;1.10;;
40599;SDS011;26309;50.924;4.754;2022-10-16T12:53:04;4.75;;;1.20;;
40599;SDS011;26309;50.924;4.754;2022-10-16T12:55:50;5.95;;;1.30;;
40599;SDS011;26309;50.924;4.754;2022-10-16T13:01:12;3.22;;;1.30;;
40599;SDS011;26309;50.924;4.754;2022-10-16T13:18:02;5.07;;;1.15;;
40599;SDS011;26309;50.924;4.754;2022-10-16T13:21:14;2.38;;;0.77;;
40599;SDS011;26309;50.924;4.754;2022-10-16T13:23:49;4.15;;;1.15;;
40599;SDS011;26309;50.924;4.754;2022-10-16T13:26:28;2.15;;;0.90;;
40599;SDS011;26309;50.924;4.754;2022-10-16T13:29:09;2.72;;;1.10;;
40599;SDS011;26309;50.924;4.754;2022-10-16T13:31:36;4.22;;;1.00;;
40599;SDS011;26309;50.924;4.754;2022-10-16T13:34:04;4.47;;;0.90;;
40599;SDS011;26309;50.924;4.754;2022-10-16T13:36:35;3.53;;;1.20;;
40599;SDS011;26309;50.924;4.754;2022-10-16T13:39:13;4.10;;;1.00;;
40599;SDS011;26309;50.924;4.754;2022-10-16T13:41:42;5.38;;;1.38;;
40599;SDS011;26309;50.924;4.754;2022-10-16T13:44:15;2.40;;;0.85;;
40599;SDS011;26309;50.924;4.754;2022-10-16T13:46:57;5.57;;;1.10;;
40599;SDS011;26309;50.924;4.754;2022-10-16T13:49:24;4.45;;;1.30;;
40599;SDS011;26309;50.924;4.754;2022-10-16T13:51:58;8.43;;;1.42;;
40599;SDS011;26309;50.924;4.754;2022-10-16T13:54:25;3.20;;;1.27;;
40599;SDS011;26309;50.924;4.754;2022-10-16T13:56:53;3.63;;;1.25;;
40599;SDS011;26309;50.924;4.754;2022-10-16T13:59:24;4.95;;;1.50;;
40599;SDS011;26309;50.924;4.754;2022-10-16T14:01:53;6.03;;;1.48;;
40599;SDS011;26309;50.924;4.754;2022-10-16T14:04:22;4.03;;;1.52;;
40599;SDS011;26309;50.924;4.754;2022-10-16T14:06:50;4.95;;;1.48;;
40599;SDS011;26309;50.924;4.754;2022-10-16T14:11:58;4.90;;;1.48;;
40599;SDS011;26309;50.924;4.754;2022-10-16T14:14:24;3.55;;;1.60;;
40599;SDS011;26309;50.924;4.754;2022-10-16T14:16:56;6.10;;;1.50;;
40599;SDS011;26309;50.924;4.754;2022-10-16T14:19:22;5.63;;;1.50;;
40599;SDS011;26309;50.924;4.754;2022-10-16T14:21:51;6.00;;;1.80;;
40599;SDS011;26309;50.924;4.754;2022-10-16T14:26:52;3.10;;;1.50;;
40599;SDS011;26309;50.924;4.754;2022-10-16T14:29:20;7.50;;;1.85;;
40599;SDS011;26309;50.924;4.754;2022-10-16T14:34:26;3.13;;;1.45;;
40599;SDS011;26309;50.924;4.754;2022-10-16T14:36:54;4.40;;;1.83;;
40599;SDS011;26309;50.924;4.754;2022-10-16T14:39:21;4.18;;;1.50;;
40599;SDS011;26309;50.924;4.754;2022-10-16T14:41:50;7.32;;;1.70;;
40599;SDS011;26309;50.924;4.754;2022-10-16T14:44:21;5.50;;;1.60;;
40599;SDS011;26309;50.924;4.754;2022-10-16T14:46:54;4.20;;;1.48;;
40599;SDS011;26309;50.924;4.754;2022-10-16T14:49:20;2.83;;;1.52;;
40599;SDS011;26309;50.924;4.754;2022-10-16T14:51:48;2.50;;;1.30;;
40599;SDS011;26309;50.924;4.754;2022-10-16T14:54:15;5.90;;;1.58;;
40599;SDS011;26309;50.924;4.754;2022-10-16T14:56:48;4.28;;;1.70;;
40599;SDS011;26309;50.924;4.754;2022-10-16T14:59:54;5.03;;;1.45;;
40599;SDS011;26309;50.924;4.754;2022-10-16T15:04:46;1.63;;;1.10;;
40599;SDS011;26309;50.924;4.754;2022-10-16T15:07:12;2.50;;;1.17;;
40599;SDS011;26309;50.924;4.754;2022-10-16T15:09:38;3.42;;;1.13;;
40599;SDS011;26309;50.924;4.754;2022-10-16T15:12:04;3.60;;;1.27;;
40599;SDS011;26309;50.924;4.754;2022-10-16T15:14:30;4.38;;;1.20;;
40599;SDS011;26309;50.924;4.754;2022-10-16T15:16:56;4.47;;;1.38;;
40599;SDS011;26309;50.924;4.754;2022-10-16T15:19:22;3.75;;;1.35;;
40599;SDS011;26309;50.924;4.754;2022-10-16T15:21:47;4.90;;;1.50;;
40599;SDS011;26309;50.924;4.754;2022-10-16T15:24:14;4.47;;;1.77;;
40599;SDS011;26309;50.924;4.754;2022-10-16T15:26:40;5.57;;;1.50;;
40599;SDS011;26309;50.924;4.754;2022-10-16T15:29:06;4.22;;;1.55;;
40599;SDS011;26309;50.924;4.754;2022-10-16T15:31:33;5.72;;;1.55;;
40599;SDS011;26309;50.924;4.754;2022-10-16T15:33:59;2.80;;;1.10;;
40599;SDS011;26309;50.924;4.754;2022-10-16T15:36:32;5.45;;;1.58;;
40599;SDS011;26309;50.924;4.754;2022-10-16T15:39:01;5.15;;;1.40;;
40599;SDS011;26309;50.924;4.754;2022-10-16T15:41:36;4.38;;;1.20;;
40599;SDS011;26309;50.924;4.754;2022-10-16T15:44:01;4.45;;;1.60;;
40599;SDS011;26309;50.924;4.754;2022-10-16T15:46:27;4.75;;;1.60;;
40599;SDS011;26309;50.924;4.754;2022-10-16T15:48:56;3.75;;;2.00;;
40599;SDS011;26309;50.924;4.754;2022-10-16T15:51:23;7.97;;;2.45;;
40599;SDS011;26309;50.924;4.754;2022-10-16T15:53:49;3.97;;;1.60;;
40599;SDS011;26309;50.924;4.754;2022-10-16T15:56:16;7.78;;;2.10;;
40599;SDS011;26309;50.924;4.754;2022-10-16T15:58:42;4.25;;;1.63;;
40599;SDS011;26309;50.924;4.754;2022-10-16T16:01:09;4.07;;;1.38;;
40599;SDS011;26309;50.924;4.754;2022-10-16T16:03:36;6.57;;;1.77;;
40599;SDS011;26309;50.924;4.754;2022-10-16T16:06:09;5.65;;;1.90;;
40599;SDS011;26309;50.924;4.754;2022-10-16T16:08:36;11.10;;;1.58;;
40599;SDS011;26309;50.924;4.754;2022-10-16T16:11:04;11.68;;;1.98;;
40599;SDS011;26309;50.924;4.754;2022-10-16T16:13:34;4.78;;;1.70;;
40599;SDS011;26309;50.924;4.754;2022-10-16T16:16:04;6.85;;;1.92;;
40599;SDS011;26309;50.924;4.754;2022-10-16T16:18:32;5.35;;;1.60;;
40599;SDS011;26309;50.924;4.754;2022-10-16T16:20:58;5.53;;;2.03;;
40599;SDS011;26309;50.924;4.754;2022-10-16T16:23:24;6.20;;;1.80;;
40599;SDS011;26309;50.924;4.754;2022-10-16T16:26:06;9.15;;;1.98;;
40599;SDS011;26309;50.924;4.754;2022-10-16T16:28:53;6.20;;;1.80;;
40599;SDS011;26309;50.924;4.754;2022-10-16T16:31:25;12.15;;;1.75;;
40599;SDS011;26309;50.924;4.754;2022-10-16T16:33:53;6.93;;;1.95;;
40599;SDS011;26309;50.924;4.754;2022-10-16T16:36:19;7.65;;;2.85;;
40599;SDS011;26309;50.924;4.754;2022-10-16T16:38:45;7.43;;;3.05;;
40599;SDS011;26309;50.924;4.754;2022-10-16T16:41:16;5.10;;;2.20;;
40599;SDS011;26309;50.924;4.754;2022-10-16T16:43:43;14.20;;;3.10;;
40599;SDS011;26309;50.924;4.754;2022-10-16T16:46:10;5.80;;;2.33;;
40599;SDS011;26309;50.924;4.754;2022-10-16T16:48:37;5.13;;;2.00;;
40599;SDS011;26309;50.924;4.754;2022-10-16T16:51:13;6.35;;;2.03;;
40599;SDS011;26309;50.924;4.754;2022-10-16T16:53:48;7.90;;;2.28;;
40599;SDS011;26309;50.924;4.754;2022-10-16T16:56:16;5.55;;;2.10;;
40599;SDS011;26309;50.924;4.754;2022-10-16T16:58:44;9.90;;;2.40;;
40599;SDS011;26309;50.924;4.754;2022-10-16T17:01:11;8.60;;;2.20;;
40599;SDS011;26309;50.924;4.754;2022-10-16T17:03:38;5.50;;;1.77;;
40599;SDS011;26309;50.924;4.754;2022-10-16T17:06:09;7.13;;;1.85;;
40599;SDS011;26309;50.924;4.754;2022-10-16T17:08:36;3.60;;;1.55;;
40599;SDS011;26309;50.924;4.754;2022-10-16T17:11:03;4.18;;;1.80;;
40599;SDS011;26309;50.924;4.754;2022-10-16T17:13:31;5.25;;;1.83;;
40599;SDS011;26309;50.924;4.754;2022-10-16T17:16:03;9.18;;;2.20;;
40599;SDS011;26309;50.924;4.754;2022-10-16T17:18:31;12.45;;;2.70;;
40599;SDS011;26309;50.924;4.754;2022-10-16T17:21:02;7.93;;;2.80;;
40599;SDS011;26309;50.924;4.754;2022-10-16T17:23:33;11.20;;;2.78;;
40599;SDS011;26309;50.924;4.754;2022-10-16T17:26:10;5.25;;;2.30;;
40599;SDS011;26309;50.924;4.754;2022-10-16T17:28:38;7.28;;;2.13;;
40599;SDS011;26309;50.924;4.754;2022-10-16T17:31:12;6.90;;;2.95;;
40599;SDS011;26309;50.924;4.754;2022-10-16T17:33:42;12.40;;;3.00;;
40599;SDS011;26309;50.924;4.754;2022-10-16T17:36:09;9.05;;;2.88;;
40599;SDS011;26309;50.924;4.754;2022-10-16T17:38:35;8.23;;;2.80;;
40599;SDS011;26309;50.924;4.754;2022-10-16T17:43:48;11.55;;;3.92;;
40599;SDS011;26309;50.924;4.754;2022-10-16T17:46:15;10.38;;;4.63;;
40599;SDS011;26309;50.924;4.754;2022-10-16T17:48:43;9.02;;;5.07;;
40599;SDS011;26309;50.924;4.754;2022-10-16T17:51:11;7.30;;;4.40;;
40599;SDS011;26309;50.924;4.754;2022-10-16T17:53:39;10.20;;;5.47;;
40599;SDS011;26309;50.924;4.754;2022-10-16T17:56:12;13.30;;;5.72;;
40599;SDS011;26309;50.924;4.754;2022-10-16T17:58:39;8.98;;;5.38;;
40599;SDS011;26309;50.924;4.754;2022-10-16T18:01:15;10.63;;;6.28;;
40599;SDS011;26309;50.924;4.754;2022-10-16T18:03:53;13.20;;;4.60;;
40599;SDS011;26309;50.924;4.754;2022-10-16T18:06:31;11.98;;;5.25;;
40599;SDS011;26309;50.924;4.754;2022-10-16T18:08:58;10.38;;;4.97;;
40599;SDS011;26309;50.924;4.754;2022-10-16T18:11:24;8.30;;;4.40;;
40599;SDS011;26309;50.924;4.754;2022-10-16T18:13:52;9.38;;;4.72;;
40599;SDS011;26309;50.924;4.754;2022-10-16T18:16:18;11.80;;;5.22;;
40599;SDS011;26309;50.924;4.754;2022-10-16T18:18:44;9.25;;;4.97;;
40599;SDS011;26309;50.924;4.754;2022-10-16T18:21:11;9.93;;;5.70;;
40599;SDS011;26309;50.924;4.754;2022-10-16T18:23:40;15.55;;;8.52;;
40599;SDS011;26309;50.924;4.754;2022-10-16T18:26:06;16.92;;;5.70;;
40599;SDS011;26309;50.924;4.754;2022-10-16T18:28:34;15.73;;;6.85;;
40599;SDS011;26309;50.924;4.754;2022-10-16T18:31:01;10.10;;;5.47;;
40599;SDS011;26309;50.924;4.754;2022-10-16T18:33:29;12.85;;;5.47;;
40599;SDS011;26309;50.924;4.754;2022-10-16T18:35:59;11.93;;;6.35;;
40599;SDS011;26309;50.924;4.754;2022-10-16T18:38:26;12.35;;;5.65;;
40599;SDS011;26309;50.924;4.754;2022-10-16T18:40:52;15.15;;;7.78;;
40599;SDS011;26309;50.924;4.754;2022-10-16T18:43:18;16.30;;;8.27;;
40599;SDS011;26309;50.924;4.754;2022-10-16T18:45:53;11.80;;;7.45;;
40599;SDS011;26309;50.924;4.754;2022-10-16T18:48:20;12.63;;;7.18;;
40599;SDS011;26309;50.924;4.754;2022-10-16T18:50:46;15.60;;;7.57;;
40599;SDS011;26309;50.924;4.754;2022-10-16T18:53:12;12.88;;;7.82;;
40599;SDS011;26309;50.924;4.754;2022-10-16T18:55:38;15.35;;;8.15;;
40599;SDS011;26309;50.924;4.754;2022-10-16T18:58:04;20.15;;;11.75;;
40599;SDS011;26309;50.924;4.754;2022-10-16T19:00:30;14.40;;;8.23;;
40599;SDS011;26309;50.924;4.754;2022-10-16T19:02:57;13.07;;;8.25;;
40599;SDS011;26309;50.924;4.754;2022-10-16T19:05:22;13.65;;;8.40;;
40599;SDS011;26309;50.924;4.754;2022-10-16T19:07:48;16.48;;;8.20;;
40599;SDS011;26309;50.924;4.754;2022-10-16T19:10:14;13.65;;;8.18;;
40599;SDS011;26309;50.924;4.754;2022-10-16T19:12:40;13.98;;;8.45;;
40599;SDS011;26309;50.924;4.754;2022-10-16T19:15:08;18.48;;;8.82;;
40599;SDS011;26309;50.924;4.754;2022-10-16T19:17:44;17.90;;;7.97;;
40599;SDS011;26309;50.924;4.754;2022-10-16T19:20:10;12.02;;;8.52;;
40599;SDS011;26309;50.924;4.754;2022-10-16T19:22:36;15.15;;;9.48;;
40599;SDS011;26309;50.924;4.754;2022-10-16T19:25:23;13.60;;;10.00;;
40599;SDS011;26309;50.924;4.754;2022-10-16T19:27:50;17.40;;;10.93;;
40599;SDS011;26309;50.924;4.754;2022-10-16T19:30:17;20.80;;;10.90;;
40599;SDS011;26309;50.924;4.754;2022-10-16T19:32:43;16.77;;;11.88;;
40599;SDS011;26309;50.924;4.754;2022-10-16T19:35:10;15.82;;;11.32;;
40599;SDS011;26309;50.924;4.754;2022-10-16T19:37:37;16.70;;;11.82;;
40599;SDS011;26309;50.924;4.754;2022-10-16T19:40:03;18.60;;;13.43;;
40599;SDS011;26309;50.924;4.754;2022-10-16T19:42:29;18.42;;;12.90;;
40599;SDS011;26309;50.924;4.754;2022-10-16T19:44:55;17.70;;;12.15;;
40599;SDS011;26309;50.924;4.754;2022-10-16T19:47:21;16.13;;;12.07;;
40599;SDS011;26309;50.924;4.754;2022-10-16T19:49:48;17.88;;;12.48;;
40599;SDS011;26309;50.924;4.754;2022-10-16T19:52:14;16.50;;;12.40;;
40599;SDS011;26309;50.924;4.754;2022-10-16T19:54:41;21.23;;;14.02;;
40599;SDS011;26309;50.924;4.754;2022-10-16T19:57:07;16.05;;;12.95;;
40599;SDS011;26309;50.924;4.754;2022-10-16T19:59:33;20.40;;;10.98;;
40599;SDS011;26309;50.924;4.754;2022-10-16T20:01:59;15.25;;;12.40;;
40599;SDS011;26309;50.924;4.754;2022-10-16T20:04:25;18.80;;;12.18;;
40599;SDS011;26309;50.924;4.754;2022-10-16T20:06:51;13.07;;;11.32;;
40599;SDS011;26309;50.924;4.754;2022-10-16T20:09:17;16.10;;;10.77;;
40599;SDS011;26309;50.924;4.754;2022-10-16T20:11:43;18.15;;;11.13;;
40599;SDS011;26309;50.924;4.754;2022-10-16T20:14:08;11.85;;;9.13;;
40599;SDS011;26309;50.924;4.754;2022-10-16T20:16:34;15.75;;;8.82;;
40599;SDS011;26309;50.924;4.754;2022-10-16T20:19:00;16.05;;;9.45;;
40599;SDS011;26309;50.924;4.754;2022-10-16T20:21:28;15.20;;;9.35;;
40599;SDS011;26309;50.924;4.754;2022-10-16T20:23:56;13.98;;;8.80;;
40599;SDS011;26309;50.924;4.754;2022-10-16T20:26:24;16.17;;;9.60;;
40599;SDS011;26309;50.924;4.754;2022-10-16T20:28:50;12.77;;;8.82;;
40599;SDS011;26309;50.924;4.754;2022-10-16T20:31:19;20.42;;;8.98;;
40599;SDS011;26309;50.924;4.754;2022-10-16T20:33:47;14.80;;;7.70;;
40599;SDS011;26309;50.924;4.754;2022-10-16T20:36:14;10.32;;;8.35;;
40599;SDS011;26309;50.924;4.754;2022-10-16T20:38:41;11.88;;;8.90;;
40599;SDS011;26309;50.924;4.754;2022-10-16T20:41:07;11.30;;;8.75;;
40599;SDS011;26309;50.924;4.754;2022-10-16T20:43:34;13.18;;;8.75;;
40599;SDS011;26309;50.924;4.754;2022-10-16T20:46:04;15.48;;;8.25;;
40599;SDS011;26309;50.924;4.754;2022-10-16T20:48:34;10.38;;;7.68;;
40599;SDS011;26309;50.924;4.754;2022-10-16T20:53:42;10.98;;;8.18;;
40599;SDS011;26309;50.924;4.754;2022-10-16T20:56:12;17.20;;;8.48;;
40599;SDS011;26309;50.924;4.754;2022-10-16T20:58:41;10.90;;;8.40;;
40599;SDS011;26309;50.924;4.754;2022-10-16T21:01:10;13.98;;;10.27;;
40599;SDS011;26309;50.924;4.754;2022-10-16T21:03:38;16.23;;;11.57;;
40599;SDS011;26309;50.924;4.754;2022-10-16T21:06:04;17.23;;;12.00;;
40599;SDS011;26309;50.924;4.754;2022-10-16T21:08:38;17.65;;;12.73;;
40599;SDS011;26309;50.924;4.754;2022-10-16T21:13:43;17.55;;;13.57;;
40599;SDS011;26309;50.924;4.754;2022-10-16T21:16:10;16.23;;;13.00;;
40599;SDS011;26309;50.924;4.754;2022-10-16T21:18:38;21.55;;;12.90;;
40599;SDS011;26309;50.924;4.754;2022-10-16T21:21:04;21.10;;;12.38;;
40599;SDS011;26309;50.924;4.754;2022-10-16T21:23:31;18.45;;;13.00;;
40599;SDS011;26309;50.924;4.754;2022-10-16T21:25:57;17.67;;;12.88;;
40599;SDS011;26309;50.924;4.754;2022-10-16T21:28:26;160.38;;;19.95;;
40599;SDS011;26309;50.924;4.754;2022-10-16T21:34:17;22.88;;;14.57;;
40599;SDS011;26309;50.924;4.754;2022-10-16T21:36:43;23.00;;;16.75;;
40599;SDS011;26309;50.924;4.754;2022-10-16T21:39:16;15.77;;;13.90;;
40599;SDS011;26309;50.924;4.754;2022-10-16T21:41:55;17.70;;;13.52;;
40599;SDS011;26309;50.924;4.754;2022-10-16T21:44:24;19.13;;;12.73;;
40599;SDS011;26309;50.924;4.754;2022-10-16T21:46:51;19.17;;;12.43;;
40599;SDS011;26309;50.924;4.754;2022-10-16T21:49:19;16.17;;;11.85;;
40599;SDS011;26309;50.924;4.754;2022-10-16T21:51:47;13.07;;;11.43;;
40599;SDS011;26309;50.924;4.754;2022-10-16T21:54:15;13.32;;;11.45;;
40599;SDS011;26309;50.924;4.754;2022-10-16T21:56:43;15.13;;;12.20;;
40599;SDS011;26309;50.924;4.754;2022-10-16T21:59:10;14.20;;;11.07;;
40599;SDS011;26309;50.924;4.754;2022-10-16T22:01:37;13.25;;;10.68;;
40599;SDS011;26309;50.924;4.754;2022-10-16T22:04:03;17.45;;;11.02;;
40599;SDS011;26309;50.924;4.754;2022-10-16T22:06:29;14.07;;;10.48;;
40599;SDS011;26309;50.924;4.754;2022-10-16T22:08:56;11.23;;;10.02;;
40599;SDS011;26309;50.924;4.754;2022-10-16T22:11:35;11.02;;;9.77;;
40599;SDS011;26309;50.924;4.754;2022-10-16T22:14:05;16.02;;;9.85;;
40599;SDS011;26309;50.924;4.754;2022-10-16T22:16:34;15.02;;;10.55;;
40599;SDS011;26309;50.924;4.754;2022-10-16T22:19:00;13.40;;;10.30;;
40599;SDS011;26309;50.924;4.754;2022-10-16T22:21:27;16.63;;;12.48;;
40599;SDS011;26309;50.924;4.754;2022-10-16T22:23:56;17.08;;;14.02;;
40599;SDS011;26309;50.924;4.754;2022-10-16T22:26:23;19.40;;;13.82;;
40599;SDS011;26309;50.924;4.754;2022-10-16T22:28:49;17.00;;;13.45;;
40599;SDS011;26309;50.924;4.754;2022-10-16T22:31:15;13.80;;;12.30;;
40599;SDS011;26309;50.924;4.754;2022-10-16T22:33:41;18.73;;;12.90;;
40599;SDS011;26309;50.924;4.754;2022-10-16T22:36:10;14.77;;;12.63;;
40599;SDS011;26309;50.924;4.754;2022-10-16T22:38:38;15.13;;;12.38;;
40599;SDS011;26309;50.924;4.754;2022-10-16T22:41:06;19.48;;;12.68;;
40599;SDS011;26309;50.924;4.754;2022-10-16T22:43:40;18.50;;;13.00;;
40599;SDS011;26309;50.924;4.754;2022-10-16T22:46:08;18.77;;;11.90;;
40599;SDS011;26309;50.924;4.754;2022-10-16T22:48:41;19.27;;;12.65;;
40599;SDS011;26309;50.924;4.754;2022-10-16T22:51:07;16.90;;;12.40;;
40599;SDS011;26309;50.924;4.754;2022-10-16T22:53:34;18.42;;;13.18;;
40599;SDS011;26309;50.924;4.754;2022-10-16T22:56:00;14.82;;;12.55;;
40599;SDS011;26309;50.924;4.754;2022-10-16T22:58:26;17.10;;;13.30;;
40599;SDS011;26309;50.924;4.754;2022-10-16T23:00:52;14.02;;;12.30;;
40599;SDS011;26309;50.924;4.754;2022-10-16T23:03:18;15.70;;;11.40;;
40599;SDS011;26309;50.924;4.754;2022-10-16T23:05:44;15.25;;;11.98;;
40599;SDS011;26309;50.924;4.754;2022-10-16T23:08:10;17.90;;;13.50;;
40599;SDS011;26309;50.924;4.754;2022-10-16T23:10:40;23.40;;;14.43;;
40599;SDS011;26309;50.924;4.754;2022-10-16T23:13:08;21.38;;;14.63;;
40599;SDS011;26309;50.924;4.754;2022-10-16T23:15:37;23.08;;;14.90;;
40599;SDS011;26309;50.924;4.754;2022-10-16T23:18:04;21.52;;;15.13;;
40599;SDS011;26309;50.924;4.754;2022-10-16T23:20:30;20.42;;;14.52;;
40599;SDS011;26309;50.924;4.754;2022-10-16T23:22:56;22.25;;;14.60;;
40599;SDS011;26309;50.924;4.754;2022-10-16T23:25:22;21.75;;;14.57;;
40599;SDS011;26309;50.924;4.754;2022-10-16T23:27:48;18.85;;;14.48;;
40599;SDS011;26309;50.924;4.754;2022-10-16T23:30:13;18.75;;;13.95;;
40599;SDS011;26309;50.924;4.754;2022-10-16T23:32:39;18.30;;;14.20;;
40599;SDS011;26309;50.924;4.754;2022-10-16T23:35:06;18.02;;;14.20;;
40599;SDS011;26309;50.924;4.754;2022-10-16T23:37:32;18.40;;;14.23;;
40599;SDS011;26309;50.924;4.754;2022-10-16T23:39:57;18.92;;;13.43;;
40599;SDS011;26309;50.924;4.754;2022-10-16T23:42:23;18.05;;;14.23;;
40599;SDS011;26309;50.924;4.754;2022-10-16T23:44:49;17.23;;;13.70;;
40599;SDS011;26309;50.924;4.754;2022-10-16T23:47:15;22.38;;;14.57;;
40599;SDS011;26309;50.924;4.754;2022-10-16T23:49:40;16.20;;;13.82;;
40599;SDS011;26309;50.924;4.754;2022-10-16T23:52:06;17.45;;;14.13;;
40599;SDS011;26309;50.924;4.754;2022-10-16T23:54:32;15.65;;;13.75;;
40599;SDS011;26309;50.924;4.754;2022-10-16T23:56:58;17.90;;;12.60;;
40599;SDS011;26309;50.924;4.754;2022-10-16T23:59:23;16.33;;;13.70;;
